Time;durP1;ratioP1;P1;durP2;ratioP2;P2;SDS_P1;SDS_P2;PMS_P1;PMS_P2;Temp;Humidity;BMP_temperature;BMP_pressure;BME280_temperature;BME280_humidity;BME280_pressure;Samples;Min_cycle;Max_cycle;Signal;HPM_P1;HPM_P2
2022/09/23 00:00:31;;;;;;;17.20;13.52;;;;;;;;;;5054501;28;20041;-67
2022/09/23 00:02:58;;;;;;;18.33;13.65;;;;;;;;;;5069948;28;20067;-67
2022/09/23 00:05:28;;;;;;;19.02;14.00;;;;;;;;;;5053163;28;20140;-67
2022/09/23 00:07:55;;;;;;;17.33;14.30;;;;;;;;;;5054192;28;20053;-67
2022/09/23 00:10:21;;;;;;;20.63;14.18;;;;;;;;;;5067926;28;20446;-67
2022/09/23 00:12:47;;;;;;;17.85;14.55;;;;;;;;;;5071887;28;20036;-68
2022/09/23 00:15:13;;;;;;;18.65;14.23;;;;;;;;;;5062414;28;20102;-67
2022/09/23 00:17:40;;;;;;;16.08;13.65;;;;;;;;;;5066683;28;20052;-67
2022/09/23 00:20:08;;;;;;;17.63;14.02;;;;;;;;;;5083002;28;20049;-67
2022/09/23 00:22:35;;;;;;;17.73;14.15;;;;;;;;;;5073260;28;20072;-67
2022/09/23 00:25:02;;;;;;;18.85;14.32;;;;;;;;;;5074276;28;20044;-67
2022/09/23 00:27:28;;;;;;;21.08;14.77;;;;;;;;;;5059019;28;20070;-67
2022/09/23 00:29:54;;;;;;;18.55;14.63;;;;;;;;;;5063388;28;20032;-67
2022/09/23 00:32:20;;;;;;;19.50;15.20;;;;;;;;;;5073943;28;20040;-67
2022/09/23 00:34:46;;;;;;;20.73;15.27;;;;;;;;;;5073631;28;20044;-67
2022/09/23 00:37:13;;;;;;;18.88;15.18;;;;;;;;;;5074220;28;20478;-67
2022/09/23 00:39:39;;;;;;;18.20;15.27;;;;;;;;;;5073609;28;20076;-68
2022/09/23 00:42:06;;;;;;;19.70;14.65;;;;;;;;;;5072870;28;20123;-67
2022/09/23 00:44:41;;;;;;;22.70;15.60;;;;;;;;;;5059550;28;20063;-67
2022/09/23 00:47:16;;;;;;;19.67;15.40;;;;;;;;;;5061811;28;20040;-67
2022/09/23 00:49:43;;;;;;;22.65;16.08;;;;;;;;;;5067428;28;20043;-67
2022/09/23 00:52:11;;;;;;;23.88;16.75;;;;;;;;;;5064144;28;20119;-67
2022/09/23 00:54:38;;;;;;;24.17;16.33;;;;;;;;;;5059352;28;20037;-68
2022/09/23 00:57:05;;;;;;;20.58;16.33;;;;;;;;;;5073583;28;20049;-67
2022/09/23 00:59:32;;;;;;;18.75;15.13;;;;;;;;;;5059281;28;20045;-73
2022/09/23 01:01:59;;;;;;;21.60;16.15;;;;;;;;;;5060968;28;20040;-73
2022/09/23 01:04:26;;;;;;;21.65;16.83;;;;;;;;;;5060362;28;20056;-73
2022/09/23 01:06:53;;;;;;;20.88;16.80;;;;;;;;;;5052838;28;20517;-74
2022/09/23 01:09:19;;;;;;;26.98;17.50;;;;;;;;;;5053839;28;20156;-74
2022/09/23 01:12:16;;;;;;;23.33;17.58;;;;;;;;;;5066595;28;20043;-74
2022/09/23 01:14:51;;;;;;;23.38;17.75;;;;;;;;;;5065791;28;20049;-73
2022/09/23 01:17:34;;;;;;;25.23;17.52;;;;;;;;;;5042153;28;20379;-73
2022/09/23 01:20:00;;;;;;;22.58;17.75;;;;;;;;;;5053101;28;20174;-73
2022/09/23 01:22:30;;;;;;;23.02;18.63;;;;;;;;;;5052654;28;20500;-73
2022/09/23 01:24:59;;;;;;;22.88;18.52;;;;;;;;;;5053125;28;20110;-67
2022/09/23 01:27:34;;;;;;;22.70;17.48;;;;;;;;;;5071548;28;20032;-67
2022/09/23 01:30:10;;;;;;;21.95;17.83;;;;;;;;;;5065758;28;20072;-67
2022/09/23 01:32:55;;;;;;;23.73;17.08;;;;;;;;;;5044289;28;20055;-67
2022/09/23 01:35:29;;;;;;;21.40;17.73;;;;;;;;;;5072997;28;20400;-67
2022/09/23 01:38:17;;;;;;;21.40;17.60;;;;;;;;;;5071212;28;20095;-67
2022/09/23 01:40:43;;;;;;;26.40;17.63;;;;;;;;;;5071339;28;20072;-67
2022/09/23 01:43:15;;;;;;;25.88;18.73;;;;;;;;;;5062387;28;20040;-67
2022/09/23 01:45:48;;;;;;;25.20;17.52;;;;;;;;;;5067158;28;20033;-73
2022/09/23 01:48:20;;;;;;;22.15;17.35;;;;;;;;;;5052293;28;20037;-73
2022/09/23 01:50:55;;;;;;;22.20;17.55;;;;;;;;;;5067208;28;20044;-74
2022/09/23 01:53:24;;;;;;;24.00;18.10;;;;;;;;;;5072790;28;20048;-74
2022/09/23 01:55:56;;;;;;;24.70;17.90;;;;;;;;;;5058651;28;20072;-73
2022/09/23 01:58:27;;;;;;;23.77;18.27;;;;;;;;;;5072892;28;20444;-73
2022/09/23 02:00:56;;;;;;;24.15;17.90;;;;;;;;;;5057172;28;20045;-74
2022/09/23 02:03:26;;;;;;;23.08;17.42;;;;;;;;;;5051544;28;20037;-73
2022/09/23 02:06:01;;;;;;;23.50;16.83;;;;;;;;;;5051169;28;20064;-74
2022/09/23 02:08:33;;;;;;;26.08;17.33;;;;;;;;;;5051066;28;20072;-73
2022/09/23 02:11:10;;;;;;;26.58;17.30;;;;;;;;;;5050987;28;20045;-74
2022/09/23 02:13:55;;;;;;;22.73;17.27;;;;;;;;;;5068435;28;20394;-73
2022/09/23 02:16:24;;;;;;;22.13;16.45;;;;;;;;;;5052724;28;20045;-73
2022/09/23 02:18:58;;;;;;;19.95;16.05;;;;;;;;;;5071200;28;20040;-67
2022/09/23 02:21:27;;;;;;;21.92;17.45;;;;;;;;;;5072247;28;20048;-67
2022/09/23 02:23:58;;;;;;;25.35;17.85;;;;;;;;;;5070474;28;20068;-68
2022/09/23 02:26:34;;;;;;;21.08;16.75;;;;;;;;;;5071294;28;20044;-68
2022/09/23 02:29:09;;;;;;;22.92;16.95;;;;;;;;;;5051950;28;20124;-73
2022/09/23 02:31:41;;;;;;;23.65;17.25;;;;;;;;;;5063051;28;20076;-74
2022/09/23 02:34:26;;;;;;;20.80;16.45;;;;;;;;;;5067359;28;20119;-73
2022/09/23 02:36:52;;;;;;;24.13;16.33;;;;;;;;;;5065662;28;20116;-73
2022/09/23 02:39:19;;;;;;;23.27;17.15;;;;;;;;;;5066622;28;20044;-73
2022/09/23 02:41:52;;;;;;;23.85;17.35;;;;;;;;;;5051187;28;20401;-67
2022/09/23 02:44:19;;;;;;;23.02;16.77;;;;;;;;;;5070782;28;20101;-67
2022/09/23 02:46:46;;;;;;;22.10;16.77;;;;;;;;;;5060411;28;20048;-67
2022/09/23 02:49:22;;;;;;;24.58;17.00;;;;;;;;;;5051655;28;20556;-67
2022/09/23 02:51:49;;;;;;;22.38;16.70;;;;;;;;;;5067097;28;20067;-68
2022/09/23 02:54:20;;;;;;;21.73;16.77;;;;;;;;;;5051393;28;20044;-67
2022/09/23 02:56:49;;;;;;;22.33;16.55;;;;;;;;;;5067414;28;20393;-68
2022/09/23 02:59:19;;;;;;;24.73;17.20;;;;;;;;;;5051574;28;20041;-67
2022/09/23 03:01:55;;;;;;;24.27;17.45;;;;;;;;;;5050562;28;20029;-67
2022/09/23 03:04:24;;;;;;;20.75;16.63;;;;;;;;;;5051662;28;20150;-73
2022/09/23 03:07:05;;;;;;;24.58;17.08;;;;;;;;;;5052210;28;20068;-73
2022/09/23 03:09:37;;;;;;;26.25;17.75;;;;;;;;;;5039645;28;20045;-73
2022/09/23 03:12:15;;;;;;;24.77;18.17;;;;;;;;;;5051925;28;20051;-73
2022/09/23 03:14:52;;;;;;;21.83;17.45;;;;;;;;;;5051971;28;20044;-74
2022/09/23 03:17:29;;;;;;;19.58;16.25;;;;;;;;;;5050626;28;20559;-73
2022/09/23 03:19:58;;;;;;;23.67;17.75;;;;;;;;;;5052026;28;20049;-74
2022/09/23 03:22:27;;;;;;;26.85;17.50;;;;;;;;;;5056985;28;20396;-74
2022/09/23 03:24:54;;;;;;;23.08;17.27;;;;;;;;;;5071859;28;20390;-74
2022/09/23 03:27:26;;;;;;;23.33;17.63;;;;;;;;;;5057706;28;20036;-73
2022/09/23 03:29:53;;;;;;;25.75;17.02;;;;;;;;;;5042289;28;20049;-73
2022/09/23 03:32:21;;;;;;;23.33;17.83;;;;;;;;;;5055416;28;20036;-67
2022/09/23 03:34:48;;;;;;;25.40;18.13;;;;;;;;;;5087387;28;20051;-67
2022/09/23 03:37:29;;;;;;;23.10;17.35;;;;;;;;;;5069830;28;20137;-68
2022/09/23 03:40:04;;;;;;;24.63;17.98;;;;;;;;;;5070111;28;20033;-68
2022/09/23 03:42:31;;;;;;;23.50;17.00;;;;;;;;;;5071222;28;20041;-68
2022/09/23 03:44:57;;;;;;;22.65;17.55;;;;;;;;;;5070157;28;20048;-67
2022/09/23 03:47:25;;;;;;;24.70;17.98;;;;;;;;;;5057250;28;20041;-67
2022/09/23 03:49:52;;;;;;;24.45;17.52;;;;;;;;;;5071860;28;20229;-68
2022/09/23 03:52:19;;;;;;;22.77;17.63;;;;;;;;;;5073231;28;20457;-67
2022/09/23 03:54:46;;;;;;;25.23;18.10;;;;;;;;;;5075073;28;20028;-68
2022/09/23 03:57:12;;;;;;;19.63;16.70;;;;;;;;;;5074621;28;20075;-67
2022/09/23 03:59:39;;;;;;;24.52;18.02;;;;;;;;;;5073766;28;20470;-67
2022/09/23 04:02:06;;;;;;;24.52;17.98;;;;;;;;;;5063397;28;20040;-73
2022/09/23 04:04:33;;;;;;;24.63;18.60;;;;;;;;;;5053301;28;20045;-73
2022/09/23 04:06:59;;;;;;;25.17;18.48;;;;;;;;;;5053463;28;20036;-67
2022/09/23 04:09:25;;;;;;;29.55;17.92;;;;;;;;;;5054652;28;20045;-67
2022/09/23 04:11:52;;;;;;;23.83;18.20;;;;;;;;;;5053593;28;20041;-73
2022/09/23 04:14:19;;;;;;;23.70;17.55;;;;;;;;;;5054803;28;20049;-73
2022/09/23 04:16:46;;;;;;;21.98;17.92;;;;;;;;;;5048240;28;20574;-73
2022/09/23 04:19:12;;;;;;;24.65;18.75;;;;;;;;;;5062553;28;20072;-73
2022/09/23 04:21:38;;;;;;;23.27;19.00;;;;;;;;;;5060899;28;20682;-73
2022/09/23 04:24:05;;;;;;;22.73;18.17;;;;;;;;;;5060748;28;20037;-74
2022/09/23 04:26:31;;;;;;;23.88;18.33;;;;;;;;;;5062590;28;20596;-73
2022/09/23 04:28:57;;;;;;;26.75;18.35;;;;;;;;;;5057589;28;20064;-73
2022/09/23 04:31:24;;;;;;;25.40;18.10;;;;;;;;;;5064522;28;20055;-73
2022/09/23 04:33:50;;;;;;;23.20;18.02;;;;;;;;;;5067385;28;20040;-73
2022/09/23 04:36:16;;;;;;;26.15;19.48;;;;;;;;;;5054497;28;20080;-73
2022/09/23 04:38:44;;;;;;;23.80;18.27;;;;;;;;;;5022729;28;20044;-73
2022/09/23 04:41:10;;;;;;;24.98;18.48;;;;;;;;;;5036454;28;20123;-73
2022/09/23 04:43:36;;;;;;;22.52;17.50;;;;;;;;;;5053511;28;20516;-73
2022/09/23 04:46:04;;;;;;;24.52;18.52;;;;;;;;;;5054728;28;20456;-73
2022/09/23 04:48:30;;;;;;;25.27;18.80;;;;;;;;;;5054461;28;20509;-73
2022/09/23 04:51:07;;;;;;;24.67;18.52;;;;;;;;;;5054238;28;20067;-74
2022/09/23 04:53:34;;;;;;;24.90;19.00;;;;;;;;;;5080477;28;20106;-73
2022/09/23 04:56:15;;;;;;;22.85;18.83;;;;;;;;;;5056053;28;20037;-73
2022/09/23 04:58:42;;;;;;;25.73;19.55;;;;;;;;;;5065413;28;20036;-73
2022/09/23 05:01:14;;;;;;;26.13;18.42;;;;;;;;;;5057839;28;20127;-73
2022/09/23 05:03:40;;;;;;;27.35;19.73;;;;;;;;;;5056267;28;20384;-73
2022/09/23 05:06:06;;;;;;;24.90;19.20;;;;;;;;;;5059745;28;20100;-73
2022/09/23 05:08:33;;;;;;;24.13;19.33;;;;;;;;;;5074091;28;20048;-73
2022/09/23 05:11:00;;;;;;;26.05;18.77;;;;;;;;;;5058278;28;20048;-68
2022/09/23 05:13:26;;;;;;;60.33;40.10;;;;;;;;;;5072949;28;20040;-68
2022/09/23 05:15:58;;;;;;;26.77;19.80;;;;;;;;;;5073782;28;20041;-68
2022/09/23 05:18:24;;;;;;;26.95;19.77;;;;;;;;;;5058656;28;20040;-68
2022/09/23 05:20:54;;;;;;;24.15;19.85;;;;;;;;;;5072072;28;20493;-67
2022/09/23 05:23:21;;;;;;;29.00;20.30;;;;;;;;;;5073085;28;20041;-68
2022/09/23 05:25:47;;;;;;;26.50;19.92;;;;;;;;;;5059393;28;20517;-68
2022/09/23 05:28:16;;;;;;;24.17;19.48;;;;;;;;;;5064317;28;20393;-68
2022/09/23 05:30:43;;;;;;;25.23;18.92;;;;;;;;;;5071733;28;20047;-68
2022/09/23 05:33:09;;;;;;;24.75;19.05;;;;;;;;;;5072849;28;20076;-68
2022/09/23 05:35:36;;;;;;;25.23;19.08;;;;;;;;;;5073274;28;20064;-67
2022/09/23 05:38:02;;;;;;;25.20;19.65;;;;;;;;;;5073083;28;20041;-68
2022/09/23 05:40:28;;;;;;;23.80;18.10;;;;;;;;;;5071115;28;20101;-68
2022/09/23 05:42:55;;;;;;;24.45;19.33;;;;;;;;;;5064329;28;20033;-68
2022/09/23 05:45:21;;;;;;;26.95;19.27;;;;;;;;;;5052241;28;20132;-74
2022/09/23 05:47:47;;;;;;;24.63;19.23;;;;;;;;;;5052857;28;20044;-74
2022/09/23 05:50:13;;;;;;;23.50;18.25;;;;;;;;;;5053534;28;20059;-73
2022/09/23 05:52:40;;;;;;;23.20;17.27;;;;;;;;;;5053853;28;20044;-74
2022/09/23 05:55:06;;;;;;;26.35;18.13;;;;;;;;;;5054431;28;20398;-74
2022/09/23 05:57:32;;;;;;;24.83;18.35;;;;;;;;;;5052039;28;20055;-74
2022/09/23 05:59:58;;;;;;;24.00;18.38;;;;;;;;;;5053743;28;20041;-74
2022/09/23 06:02:24;;;;;;;21.42;16.63;;;;;;;;;;5051928;28;20116;-68
2022/09/23 06:04:50;;;;;;;22.13;17.33;;;;;;;;;;5071853;28;20048;-68
2022/09/23 06:07:16;;;;;;;20.33;16.95;;;;;;;;;;5054598;28;20051;-68
2022/09/23 06:09:43;;;;;;;22.92;17.17;;;;;;;;;;5072286;28;20032;-68
2022/09/23 06:12:09;;;;;;;20.15;15.38;;;;;;;;;;5072364;28;20446;-73
2022/09/23 06:14:35;;;;;;;22.83;16.60;;;;;;;;;;5057275;28;20375;-74
2022/09/23 06:17:02;;;;;;;22.67;15.20;;;;;;;;;;5052967;28;20041;-74
2022/09/23 06:19:28;;;;;;;22.42;15.82;;;;;;;;;;5051945;28;20552;-74
2022/09/23 06:21:54;;;;;;;20.77;15.50;;;;;;;;;;5035869;28;20497;-74
2022/09/23 06:24:20;;;;;;;20.60;15.60;;;;;;;;;;5052986;28;20117;-74
2022/09/23 06:26:47;;;;;;;24.33;15.88;;;;;;;;;;5053152;28;20045;-73
2022/09/23 06:29:13;;;;;;;21.35;15.88;;;;;;;;;;5058737;28;20040;-73
2022/09/23 06:31:40;;;;;;;21.95;16.35;;;;;;;;;;5065837;28;20047;-73
2022/09/23 06:34:06;;;;;;;23.83;16.52;;;;;;;;;;5051920;28;20498;-74
2022/09/23 06:36:33;;;;;;;22.55;17.20;;;;;;;;;;5052875;28;20079;-73
2022/09/23 06:38:59;;;;;;;23.35;16.63;;;;;;;;;;5052649;28;20048;-74
2022/09/23 06:41:25;;;;;;;22.02;17.40;;;;;;;;;;5051664;28;20037;-74
2022/09/23 06:43:51;;;;;;;26.35;18.38;;;;;;;;;;5051546;28;20072;-73
2022/09/23 06:46:17;;;;;;;23.35;18.17;;;;;;;;;;5051619;28;20036;-73
2022/09/23 06:48:43;;;;;;;20.35;15.15;;;;;;;;;;5051655;28;20052;-73
2022/09/23 06:51:11;;;;;;;20.83;16.33;;;;;;;;;;5052534;28;20041;-74
2022/09/23 06:53:38;;;;;;;23.75;17.17;;;;;;;;;;5052521;28;20049;-68
2022/09/23 06:56:07;;;;;;;21.40;16.85;;;;;;;;;;5069314;28;20134;-68
2022/09/23 06:58:34;;;;;;;22.50;17.45;;;;;;;;;;5070265;28;20072;-68
2022/09/23 07:01:06;;;;;;;24.17;17.10;;;;;;;;;;5069595;28;20055;-68
2022/09/23 07:03:32;;;;;;;24.15;17.58;;;;;;;;;;5051716;28;20516;-68
2022/09/23 07:05:59;;;;;;;20.35;16.67;;;;;;;;;;5050373;28;20057;-68
2022/09/23 07:08:26;;;;;;;23.48;16.35;;;;;;;;;;5051358;28;20041;-68
2022/09/23 07:10:52;;;;;;;21.02;16.55;;;;;;;;;;5067374;28;20564;-68
2022/09/23 07:13:18;;;;;;;23.48;16.05;;;;;;;;;;5051732;28;20505;-68
2022/09/23 07:15:51;;;;;;;19.02;15.65;;;;;;;;;;5067087;28;20386;-68
2022/09/23 07:18:18;;;;;;;21.15;16.60;;;;;;;;;;5052234;28;20049;-68
2022/09/23 07:20:45;;;;;;;24.10;16.55;;;;;;;;;;5069896;28;20041;-68
2022/09/23 07:23:11;;;;;;;19.13;15.70;;;;;;;;;;5070563;28;20041;-68
2022/09/23 07:25:37;;;;;;;18.15;15.07;;;;;;;;;;5067896;28;20033;-68
2022/09/23 07:28:04;;;;;;;19.27;14.73;;;;;;;;;;5042620;28;20041;-68
2022/09/23 07:30:30;;;;;;;20.13;15.05;;;;;;;;;;5069290;28;20509;-74
2022/09/23 07:32:56;;;;;;;20.25;15.70;;;;;;;;;;5038590;28;20094;-74
2022/09/23 07:35:22;;;;;;;21.15;15.75;;;;;;;;;;5055057;28;20508;-74
2022/09/23 07:37:49;;;;;;;20.75;15.07;;;;;;;;;;5071331;28;20129;-74
2022/09/23 07:40:15;;;;;;;20.67;15.32;;;;;;;;;;5056230;28;20041;-74
2022/09/23 07:42:41;;;;;;;18.98;14.35;;;;;;;;;;5055705;28;20036;-74
2022/09/23 07:45:08;;;;;;;19.27;14.15;;;;;;;;;;5038108;28;20116;-75
2022/09/23 07:47:34;;;;;;;16.92;13.63;;;;;;;;;;5055768;28;20049;-74
2022/09/23 07:50:00;;;;;;;18.73;14.57;;;;;;;;;;5055613;28;20040;-74
2022/09/23 07:52:27;;;;;;;21.45;14.15;;;;;;;;;;5038087;28;20099;-74
2022/09/23 07:54:53;;;;;;;17.52;13.13;;;;;;;;;;5063267;28;20047;-74
2022/09/23 07:57:19;;;;;;;18.27;13.70;;;;;;;;;;5091371;28;20123;-74
2022/09/23 07:59:45;;;;;;;17.00;13.77;;;;;;;;;;5055427;28;20077;-74
2022/09/23 08:02:15;;;;;;;16.92;13.52;;;;;;;;;;5054236;28;20040;-74
2022/09/23 08:04:41;;;;;;;16.40;13.15;;;;;;;;;;5057735;28;20063;-69
2022/09/23 08:07:08;;;;;;;19.70;13.77;;;;;;;;;;5057188;28;20100;-68
2022/09/23 08:09:40;;;;;;;16.90;13.23;;;;;;;;;;5060176;28;20125;-69
2022/09/23 08:12:10;;;;;;;18.23;13.68;;;;;;;;;;5073634;28;20037;-68
2022/09/23 08:14:37;;;;;;;19.55;13.75;;;;;;;;;;5072865;28;20040;-69
2022/09/23 08:17:03;;;;;;;16.80;13.65;;;;;;;;;;5068868;28;20071;-69
2022/09/23 08:19:29;;;;;;;16.50;13.63;;;;;;;;;;5064547;28;20068;-68
2022/09/23 08:21:56;;;;;;;16.05;13.63;;;;;;;;;;5073045;28;20051;-68
2022/09/23 08:24:23;;;;;;;17.38;12.75;;;;;;;;;;5056630;28;20040;-69
2022/09/23 08:26:52;;;;;;;16.83;13.25;;;;;;;;;;5073472;28;20040;-74
2022/09/23 08:29:18;;;;;;;20.42;13.50;;;;;;;;;;5060925;28;20106;-74
2022/09/23 08:31:45;;;;;;;16.45;13.40;;;;;;;;;;5061967;28;20116;-74
2022/09/23 08:34:12;;;;;;;16.98;12.82;;;;;;;;;;5055114;28;20037;-74
2022/09/23 08:36:38;;;;;;;14.43;12.27;;;;;;;;;;5036685;28;20059;-74
2022/09/23 08:39:04;;;;;;;16.65;12.63;;;;;;;;;;5053812;28;20516;-74
2022/09/23 08:41:30;;;;;;;16.50;13.02;;;;;;;;;;5037000;28;20128;-75
2022/09/23 08:44:25;;;;;;;14.55;12.43;;;;;;;;;;5069725;28;20040;-69
2022/09/23 08:47:01;;;;;;;16.77;13.15;;;;;;;;;;5087257;28;20048;-69
2022/09/23 08:49:37;;;;;;;21.58;12.57;;;;;;;;;;5059917;28;20048;-69
2022/09/23 08:52:07;;;;;;;15.63;12.55;;;;;;;;;;5073998;28;20044;-69
2022/09/23 08:54:33;;;;;;;16.73;13.00;;;;;;;;;;5072789;28;20516;-69
2022/09/23 08:57:01;;;;;;;14.35;11.57;;;;;;;;;;5072659;28;20041;-69
2022/09/23 08:59:35;;;;;;;14.38;10.73;;;;;;;;;;5073534;28;20036;-69
2022/09/23 09:02:06;;;;;;;14.55;11.55;;;;;;;;;;5072549;28;20443;-69
2022/09/23 09:04:35;;;;;;;15.43;11.05;;;;;;;;;;5073527;28;20057;-69
2022/09/23 09:07:22;;;;;;;15.18;11.05;;;;;;;;;;5072274;28;20090;-69
2022/09/23 09:09:51;;;;;;;13.85;10.73;;;;;;;;;;5073159;28;20082;-69
2022/09/23 09:12:17;;;;;;;13.20;10.77;;;;;;;;;;5073656;28;20040;-69
2022/09/23 09:14:52;;;;;;;14.98;11.98;;;;;;;;;;5073080;28;20032;-69
2022/09/23 09:17:38;;;;;;;16.70;11.88;;;;;;;;;;5065687;28;20043;-74
2022/09/23 09:20:05;;;;;;;15.05;11.85;;;;;;;;;;5054839;28;20563;-74
2022/09/23 09:22:37;;;;;;;16.20;11.57;;;;;;;;;;5066802;28;20033;-74
2022/09/23 09:25:11;;;;;;;13.52;10.70;;;;;;;;;;5053787;28;20072;-75
2022/09/23 09:27:39;;;;;;;12.95;10.70;;;;;;;;;;5069444;28;20090;-75
2022/09/23 09:30:05;;;;;;;13.85;11.13;;;;;;;;;;5054219;28;20123;-75
2022/09/23 09:32:50;;;;;;;15.98;10.45;;;;;;;;;;5052582;28;20044;-75
2022/09/23 09:35:23;;;;;;;14.73;10.77;;;;;;;;;;5053649;28;20083;-75
2022/09/23 09:37:49;;;;;;;14.95;10.85;;;;;;;;;;5053840;28;20036;-74
2022/09/23 09:40:16;;;;;;;15.15;11.57;;;;;;;;;;5053304;28;20091;-69
2022/09/23 09:42:45;;;;;;;15.10;10.57;;;;;;;;;;5071772;28;20032;-69
2022/09/23 09:45:39;;;;;;;15.32;10.73;;;;;;;;;;5071575;28;20046;-69
2022/09/23 09:48:16;;;;;;;15.48;10.40;;;;;;;;;;5072153;28;20040;-69
2022/09/23 09:50:42;;;;;;;13.15;9.82;;;;;;;;;;5071340;28;20052;-69
2022/09/23 09:53:26;;;;;;;12.60;9.52;;;;;;;;;;5072529;28;20479;-69
2022/09/23 09:56:12;;;;;;;13.98;10.70;;;;;;;;;;5069986;28;20393;-74
2022/09/23 09:58:47;;;;;;;14.00;10.32;;;;;;;;;;5052302;28;20052;-75
2022/09/23 10:01:19;;;;;;;14.80;10.35;;;;;;;;;;5055641;28;20460;-74
2022/09/23 10:03:46;;;;;;;15.80;10.23;;;;;;;;;;5062040;28;20123;-74
2022/09/23 10:06:18;;;;;;;15.18;10.65;;;;;;;;;;5037800;28;20049;-69
2022/09/23 10:08:47;;;;;;;15.55;10.23;;;;;;;;;;5063248;28;20148;-75
2022/09/23 10:11:15;;;;;;;16.75;11.23;;;;;;;;;;5053058;28;20047;-74
2022/09/23 10:13:41;;;;;;;13.02;10.20;;;;;;;;;;5052147;28;20045;-75
2022/09/23 10:16:08;;;;;;;14.68;10.93;;;;;;;;;;5068567;28;20043;-69
2022/09/23 10:18:38;;;;;;;17.00;11.05;;;;;;;;;;5058087;28;20068;-69
2022/09/23 10:21:09;;;;;;;14.52;10.27;;;;;;;;;;5070944;28;20066;-74
2022/09/23 10:23:39;;;;;;;14.35;10.13;;;;;;;;;;5056896;28;20124;-74
2022/09/23 10:26:07;;;;;;;13.13;9.75;;;;;;;;;;5053069;28;20516;-74
2022/09/23 10:28:40;;;;;;;16.90;10.20;;;;;;;;;;5051627;28;20037;-74
2022/09/23 10:31:11;;;;;;;13.73;10.05;;;;;;;;;;5068172;28;20071;-75
2022/09/23 10:33:42;;;;;;;14.30;10.48;;;;;;;;;;5051855;28;20077;-74
2022/09/23 10:36:11;;;;;;;13.50;10.32;;;;;;;;;;5064154;28;20097;-74
2022/09/23 10:38:37;;;;;;;17.38;10.48;;;;;;;;;;5051689;28;20478;-74
2022/09/23 10:47:00;;;;;;;15.98;10.32;;;;;;;;;;5051445;28;20041;-74
2022/09/23 10:49:26;;;;;;;12.93;9.77;;;;;;;;;;5051280;28;20516;-74
2022/09/23 10:52:12;;;;;;;20.95;11.68;;;;;;;;;;5052396;28;20098;-75
2022/09/23 10:54:45;;;;;;;14.60;10.23;;;;;;;;;;5056823;28;20044;-74
2022/09/23 10:57:42;;;;;;;14.80;9.90;;;;;;;;;;5074986;28;20041;-69
2022/09/23 11:00:27;;;;;;;15.77;10.35;;;;;;;;;;5051117;28;20556;-69
2022/09/23 11:02:56;;;;;;;14.30;10.40;;;;;;;;;;5075517;28;20055;-70
2022/09/23 11:05:34;;;;;;;15.93;10.20;;;;;;;;;;5074472;28;20048;-70
2022/09/23 11:08:06;;;;;;;13.95;9.88;;;;;;;;;;5071618;28;20067;-69
2022/09/23 11:10:48;;;;;;;13.63;9.90;;;;;;;;;;5066423;28;20048;-69
2022/09/23 11:13:22;;;;;;;14.23;10.50;;;;;;;;;;5057770;28;20044;-69
2022/09/23 11:16:07;;;;;;;16.23;11.00;;;;;;;;;;5074618;28;20063;-69
2022/09/23 11:18:42;;;;;;;15.83;10.50;;;;;;;;;;5054597;28;20498;-70
2022/09/23 11:21:08;;;;;;;15.38;11.05;;;;;;;;;;5074101;28;20111;-69
2022/09/23 11:23:53;;;;;;;15.50;10.07;;;;;;;;;;5075491;28;20508;-69
2022/09/23 11:26:29;;;;;;;13.88;11.05;;;;;;;;;;5075648;28;20059;-69
2022/09/23 11:29:21;;;;;;;16.38;11.20;;;;;;;;;;5065781;28;20036;-69
2022/09/23 11:31:56;;;;;;;16.20;10.80;;;;;;;;;;5074259;28;20094;-69
2022/09/23 11:34:41;;;;;;;15.47;10.77;;;;;;;;;;5075370;28;20504;-69
2022/09/23 11:37:27;;;;;;;13.30;10.90;;;;;;;;;;5074638;28;20286;-69
2022/09/23 11:39:53;;;;;;;;;;;;;;;;;;5073935;28;20045;-70
2022/09/23 11:42:22;;;;;;;15.38;10.48;;;;;;;;;;5073829;28;19923;-70
2022/09/23 11:44:54;;;;;;;15.73;11.13;;;;;;;;;;5074020;28;20041;-69
2022/09/23 11:47:23;;;;;;;15.13;10.90;;;;;;;;;;5075112;28;20046;-69
2022/09/23 11:49:57;;;;;;;14.45;10.60;;;;;;;;;;5073555;28;20048;-69
2022/09/23 11:52:44;;;;;;;16.25;11.18;;;;;;;;;;5073763;28;20044;-69
2022/09/23 11:55:13;;;;;;;13.70;10.40;;;;;;;;;;5073426;28;20077;-69
2022/09/23 11:57:45;;;;;;;19.08;11.52;;;;;;;;;;5074827;28;20547;-69
2022/09/23 12:00:14;;;;;;;16.13;11.05;;;;;;;;;;5056571;28;20052;-69
2022/09/23 12:02:40;;;;;;;16.88;11.13;;;;;;;;;;5070422;28;20048;-75
2022/09/23 12:05:12;;;;;;;17.48;11.90;;;;;;;;;;5070008;28;20137;-75
2022/09/23 12:07:43;;;;;;;15.80;10.90;;;;;;;;;;5055092;28;20106;-75
2022/09/23 12:10:10;;;;;;;17.70;10.98;;;;;;;;;;5053509;28;20078;-75
2022/09/23 12:12:52;;;;;;;17.25;10.75;;;;;;;;;;5070258;28;20416;-75
2022/09/23 12:15:36;;;;;;;16.25;11.00;;;;;;;;;;5070092;28;20044;-75
2022/09/23 12:18:02;;;;;;;15.98;10.70;;;;;;;;;;5053520;28;20044;-75
2022/09/23 12:20:37;;;;;;;14.82;10.73;;;;;;;;;;5057809;28;20505;-75
2022/09/23 12:23:03;;;;;;;13.60;10.35;;;;;;;;;;5062137;28;20413;-75
2022/09/23 12:25:38;;;;;;;14.18;10.30;;;;;;;;;;5072300;28;20402;-75
2022/09/23 12:28:10;;;;;;;13.50;10.02;;;;;;;;;;5062594;28;20433;-75
2022/09/23 12:30:36;;;;;;;12.43;10.15;;;;;;;;;;5067441;28;20068;-76
2022/09/23 12:33:14;;;;;;;17.17;10.30;;;;;;;;;;5063117;28;20044;-69
2022/09/23 12:35:41;;;;;;;12.13;10.05;;;;;;;;;;5071008;28;20472;-74
2022/09/23 12:38:25;;;;;;;13.38;10.13;;;;;;;;;;5054601;28;20393;-74
2022/09/23 12:40:53;;;;;;;13.45;9.82;;;;;;;;;;5057684;28;20489;-74
2022/09/23 12:43:28;;;;;;;15.38;10.30;;;;;;;;;;5064346;28;20044;-75
2022/09/23 12:45:55;;;;;;;14.75;9.93;;;;;;;;;;5053385;28;20029;-74
2022/09/23 12:48:26;;;;;;;15.27;10.48;;;;;;;;;;5054230;28;20081;-75
2022/09/23 12:51:08;;;;;;;17.25;9.63;;;;;;;;;;5053301;28;20481;-75
2022/09/23 12:53:34;;;;;;;13.50;10.43;;;;;;;;;;5054585;28;20394;-74
2022/09/23 12:56:01;;;;;;;14.55;10.50;;;;;;;;;;5070035;28;20041;-75
2022/09/23 12:58:42;;;;;;;16.90;10.73;;;;;;;;;;5063538;28;20047;-75
2022/09/23 13:01:16;;;;;;;16.23;10.85;;;;;;;;;;5058609;28;20044;-74
2022/09/23 13:06:38;;;;;;;17.45;11.52;;;;;;;;;;5088427;28;20048;-69
2022/09/23 13:09:23;;;;;;;14.75;10.93;;;;;;;;;;5060681;28;20044;-69
2022/09/23 13:11:51;;;;;;;16.80;11.85;;;;;;;;;;5046656;28;20040;-69
2022/09/23 13:14:20;;;;;;;15.73;11.80;;;;;;;;;;5072719;28;20083;-75
2022/09/23 13:16:47;;;;;;;16.08;11.02;;;;;;;;;;5052923;28;20501;-75
2022/09/23 13:19:25;;;;;;;18.85;11.45;;;;;;;;;;5053750;28;20037;-75
2022/09/23 13:21:51;;;;;;;16.52;11.70;;;;;;;;;;5053394;28;20410;-75
2022/09/23 13:24:27;;;;;;;15.82;11.00;;;;;;;;;;5051564;28;20045;-74
2022/09/23 13:26:56;;;;;;;14.07;11.40;;;;;;;;;;5068180;28;20037;-74
2022/09/23 13:29:27;;;;;;;13.45;10.35;;;;;;;;;;5053804;28;20482;-75
2022/09/23 13:31:56;;;;;;;16.70;10.40;;;;;;;;;;5066608;28;20493;-74
2022/09/23 13:34:25;;;;;;;18.38;11.73;;;;;;;;;;5035616;28;20051;-75
2022/09/23 13:36:52;;;;;;;16.33;11.55;;;;;;;;;;5065631;28;20477;-74
2022/09/23 13:39:25;;;;;;;19.38;11.23;;;;;;;;;;5053868;28;20494;-75
2022/09/23 13:41:52;;;;;;;15.95;11.50;;;;;;;;;;5052266;28;20128;-74
2022/09/23 13:44:19;;;;;;;15.48;11.73;;;;;;;;;;5051905;28;20079;-75
2022/09/23 13:46:50;;;;;;;17.80;11.27;;;;;;;;;;5063352;28;20119;-74
2022/09/23 13:49:24;;;;;;;17.00;11.00;;;;;;;;;;5068302;28;20033;-75
2022/09/23 13:51:52;;;;;;;14.85;11.52;;;;;;;;;;5064072;28;20033;-74
2022/09/23 13:54:28;;;;;;;18.83;11.63;;;;;;;;;;5069003;28;20128;-74
2022/09/23 13:56:55;;;;;;;18.33;12.23;;;;;;;;;;5063315;28;20452;-75
2022/09/23 13:59:35;;;;;;;17.77;12.43;;;;;;;;;;5072340;28;20405;-69
2022/09/23 14:02:07;;;;;;;15.88;12.45;;;;;;;;;;5071632;28;20413;-70
2022/09/23 14:04:33;;;;;;;22.65;14.10;;;;;;;;;;5070738;28;20071;-70
2022/09/23 14:06:59;;;;;;;16.65;11.88;;;;;;;;;;5072546;28;20044;-70
2022/09/23 14:09:26;;;;;;;18.50;12.40;;;;;;;;;;5071821;28;20029;-69
2022/09/23 14:11:53;;;;;;;16.60;12.65;;;;;;;;;;5071520;28;20036;-70
2022/09/23 14:14:19;;;;;;;16.48;12.30;;;;;;;;;;5072420;28;20058;-69
2022/09/23 14:16:48;;;;;;;18.65;12.95;;;;;;;;;;5070670;28;20036;-70
2022/09/23 14:19:18;;;;;;;22.08;13.43;;;;;;;;;;5052202;28;20110;-70
2022/09/23 14:21:46;;;;;;;18.98;13.60;;;;;;;;;;5065716;28;20045;-70
2022/09/23 14:24:14;;;;;;;15.23;12.77;;;;;;;;;;5070457;28;20044;-69
2022/09/23 14:26:46;;;;;;;16.40;12.30;;;;;;;;;;5070903;28;20050;-70
2022/09/23 14:29:20;;;;;;;15.57;12.73;;;;;;;;;;5045297;28;20032;-70
2022/09/23 14:31:55;;;;;;;15.93;12.63;;;;;;;;;;5054148;28;20052;-70
2022/09/23 14:34:40;;;;;;;18.58;12.65;;;;;;;;;;5050804;28;20080;-70
2022/09/23 14:40:09;;;;;;;17.98;12.65;;;;;;;;;;5072076;28;20041;-69
2022/09/23 14:42:40;;;;;;;17.60;12.20;;;;;;;;;;5053996;28;20048;-70
2022/09/23 14:45:07;;;;;;;14.18;11.30;;;;;;;;;;5072311;28;20048;-74
2022/09/23 14:47:34;;;;;;;16.58;12.40;;;;;;;;;;5053876;28;20077;-74